Time;durP1;ratioP1;P1;durP2;ratioP2;P2;SDS_P1;SDS_P2;PMS_P1;PMS_P2;Temp;Humidity;BMP_temperature;BMP_pressure;BME280_temperature;BME280_humidity;BME280_pressure;Samples;Min_cycle;Max_cycle;Signal;HPM_P1;HPM_P2
2022/12/31 00:01:23;;;;;;;0.27;0.27;;;;;;;14.30;83.94;100038.09;5013787;28;20722;-73
2022/12/31 00:03:49;;;;;;;0.30;0.30;;;;;;;14.30;84.14;100048.16;5013964;28;20458;-74
2022/12/31 00:06:28;;;;;;;0.20;0.20;;;;;;;14.28;84.26;100066.72;5013770;28;20390;-73
2022/12/31 00:08:56;;;;;;;0.30;0.30;;;;;;;14.25;84.70;100059.94;5013725;28;20396;-74
2022/12/31 00:11:23;;;;;;;0.40;0.40;;;;;;;14.29;84.34;100065.66;5013639;28;20820;-74
2022/12/31 00:13:49;;;;;;;0.30;0.30;;;;;;;14.32;84.69;100067.81;5013662;28;20404;-73
2022/12/31 00:16:18;;;;;;;0.43;0.30;;;;;;;14.29;84.65;100068.38;5013465;28;20400;-73
2022/12/31 00:18:47;;;;;;;0.35;0.20;;;;;;;14.26;84.90;100069.72;5013615;28;20839;-74
2022/12/31 00:21:13;;;;;;;0.35;0.25;;;;;;;14.31;84.81;100075.16;5013424;28;20451;-74
2022/12/31 00:23:39;;;;;;;0.93;0.28;;;;;;;14.30;84.91;100080.88;5013347;28;20436;-74
2022/12/31 00:26:16;;;;;;;0.20;0.20;;;;;;;14.34;85.06;100080.09;5013599;28;20409;-74
2022/12/31 00:28:42;;;;;;;0.90;0.40;;;;;;;14.42;84.63;100084.16;5013301;28;20388;-74
2022/12/31 00:31:13;;;;;;;0.27;0.27;;;;;;;14.40;84.31;100078.16;5013214;28;20488;-73
2022/12/31 00:33:39;;;;;;;0.20;0.20;;;;;;;14.36;84.64;100093.44;5013077;28;20397;-74
2022/12/31 00:36:11;;;;;;;1.80;0.30;;;;;;;14.35;84.72;100089.91;5013199;28;20473;-73
2022/12/31 00:38:37;;;;;;;1.67;0.30;;;;;;;14.42;84.64;100101.31;5013352;28;20385;-74
2022/12/31 00:41:03;;;;;;;0.52;0.47;;;;;;;14.47;84.08;100112.22;5012889;28;20385;-74
2022/12/31 00:43:28;;;;;;;0.98;0.22;;;;;;;14.43;84.50;100105.69;5012930;28;20487;-74
2022/12/31 00:45:53;;;;;;;0.57;0.20;;;;;;;14.39;84.49;100095.63;5013050;28;20401;-73
2022/12/31 00:48:19;;;;;;;0.90;0.40;;;;;;;14.36;84.86;100102.44;5013004;28;20389;-74
2022/12/31 00:50:44;;;;;;;0.23;0.23;;;;;;;14.40;84.75;100099.97;5012855;28;20400;-73
2022/12/31 00:53:10;;;;;;;1.83;0.20;;;;;;;14.47;84.34;100109.47;5013022;28;20473;-73
2022/12/31 00:55:35;;;;;;;0.20;0.20;;;;;;;14.44;84.18;100115.50;5012934;28;20400;-74
2022/12/31 00:58:00;;;;;;;0.87;0.40;;;;;;;14.50;83.91;100105.38;5012883;28;20392;-73
2022/12/31 01:00:25;;;;;;;2.20;0.60;;;;;;;14.51;83.81;100135.09;5012084;28;20400;-73
2022/12/31 01:02:51;;;;;;;2.13;0.67;;;;;;;14.54;83.33;100131.81;5012524;28;20416;-74
2022/12/31 01:05:16;;;;;;;1.93;0.70;;;;;;;14.55;83.44;100125.25;5011524;28;20446;-74
2022/12/31 01:07:41;;;;;;;0.43;0.43;;;;;;;14.59;83.62;100122.78;5012585;28;20389;-73
2022/12/31 01:10:07;;;;;;;0.50;0.40;;;;;;;14.56;83.51;100136.97;5011457;28;20400;-73
2022/12/31 01:12:33;;;;;;;0.32;0.30;;;;;;;14.53;83.68;100140.25;5012675;28;20393;-74
2022/12/31 01:14:58;;;;;;;1.90;1.60;;;;;;;14.52;83.69;100138.66;5011208;28;20400;-74
2022/12/31 01:17:23;;;;;;;7.47;5.37;;;;;;;14.50;83.53;100141.63;5012439;28;20389;-74
2022/12/31 01:19:48;;;;;;;0.60;0.60;;;;;;;14.48;83.43;100127.47;5012420;28;20396;-73
2022/12/31 01:22:14;;;;;;;0.53;0.53;;;;;;;14.60;82.99;100132.59;5012289;28;20873;-73
2022/12/31 01:24:39;;;;;;;1.50;0.40;;;;;;;14.61;82.68;100127.97;5012248;28;20491;-74
2022/12/31 01:27:05;;;;;;;2.80;0.60;;;;;;;14.55;82.41;100129.91;5012421;28;20400;-74
2022/12/31 01:29:30;;;;;;;0.60;0.30;;;;;;;14.50;82.38;100140.81;5012394;28;20409;-73
2022/12/31 01:31:55;;;;;;;3.27;0.40;;;;;;;14.47;82.12;100144.94;5010950;28;20456;-74
2022/12/31 01:34:20;;;;;;;2.67;0.47;;;;;;;14.51;82.46;100147.91;5012127;28;20448;-74
2022/12/31 01:36:46;;;;;;;0.80;0.50;;;;;;;14.51;81.95;100146.00;5012190;28;20392;-74
2022/12/31 01:39:11;;;;;;;0.40;0.40;;;;;;;14.50;81.42;100146.28;5012303;28;20755;-74
2022/12/31 01:41:40;;;;;;;1.20;0.37;;;;;;;14.51;81.35;100162.38;5012083;28;20819;-74
2022/12/31 01:44:11;;;;;;;0.32;0.32;;;;;;;14.62;81.08;100156.88;5012200;28;20423;-74
2022/12/31 01:46:52;;;;;;;0.40;0.40;;;;;;;14.64;80.58;100144.59;5012097;28;20970;-73
2022/12/31 01:49:24;;;;;;;0.43;0.43;;;;;;;14.58;80.47;100143.00;5012070;28;20852;-73
2022/12/31 01:51:55;;;;;;;0.40;0.40;;;;;;;14.55;80.11;100143.53;5012160;28;20384;-74
2022/12/31 01:54:22;;;;;;;1.90;0.35;;;;;;;14.63;79.86;100150.31;5012100;28;20389;-74
2022/12/31 01:56:52;;;;;;;1.10;0.40;;;;;;;14.70;79.57;100156.28;5012058;28;20471;-74
2022/12/31 01:59:19;;;;;;;0.47;0.40;;;;;;;14.67;79.15;100140.47;5011841;28;20891;-73
2022/12/31 02:01:47;;;;;;;1.00;0.50;;;;;;;14.72;79.03;100157.63;5011994;28;20530;-74
2022/12/31 02:04:14;;;;;;;0.40;0.40;;;;;;;14.75;78.80;100154.34;4997890;28;20389;-74
2022/12/31 02:06:44;;;;;;;0.47;0.30;;;;;;;14.77;78.49;100156.81;5010719;28;20407;-74
2022/12/31 02:09:10;;;;;;;0.50;0.45;;;;;;;14.92;77.60;100167.63;5012006;28;20424;-74
2022/12/31 02:11:36;;;;;;;0.98;0.45;;;;;;;14.90;77.44;100172.56;5011854;28;20922;-74
2022/12/31 02:14:15;;;;;;;0.60;0.20;;;;;;;14.99;76.95;100166.25;5001612;28;20420;-74
2022/12/31 02:16:53;;;;;;;0.20;0.20;;;;;;;15.05;76.56;100156.09;5015724;28;20411;-74
2022/12/31 02:19:30;;;;;;;0.30;0.20;;;;;;;15.03;76.47;100153.69;5015751;28;20393;-73
2022/12/31 02:22:14;;;;;;;0.40;0.40;;;;;;;15.15;76.01;100144.34;5001806;28;20496;-74
2022/12/31 02:24:53;;;;;;;0.70;0.50;;;;;;;15.14;75.70;100156.34;5015895;28;20389;-73
2022/12/31 02:27:32;;;;;;;1.70;0.40;;;;;;;15.15;75.29;100156.03;5012713;28;20927;-74
2022/12/31 02:30:07;;;;;;;1.52;0.60;;;;;;;15.16;75.43;100174.06;5003083;28;20439;-74
2022/12/31 02:32:46;;;;;;;0.80;0.63;;;;;;;15.15;75.31;100160.72;5015310;28;20466;-74
2022/12/31 02:35:26;;;;;;;0.95;0.40;;;;;;;15.19;75.29;100145.38;5015676;28;20417;-74
2022/12/31 02:37:57;;;;;;;0.60;0.60;;;;;;;15.21;74.99;100149.50;5003139;28;20803;-74
2022/12/31 02:40:24;;;;;;;0.40;0.40;;;;;;;15.38;74.32;100149.06;5015404;28;20415;-74
2022/12/31 02:42:49;;;;;;;1.20;0.70;;;;;;;15.31;74.35;100143.94;5015259;28;20418;-74
2022/12/31 02:45:22;;;;;;;0.50;0.30;;;;;;;15.46;73.49;100149.31;5014016;28;20856;-74
2022/12/31 02:47:50;;;;;;;0.43;0.40;;;;;;;15.52;72.98;100150.09;5015339;28;20466;-74
2022/12/31 02:50:31;;;;;;;3.17;0.60;;;;;;;15.44;73.48;100159.69;5015099;28;20794;-74
2022/12/31 02:53:08;;;;;;;0.40;0.37;;;;;;;15.48;73.48;100155.31;5015176;28;20778;-74
2022/12/31 02:55:59;;;;;;;0.50;0.38;;;;;;;15.47;73.81;100150.94;5015045;28;20440;-73
2022/12/31 03:04:36;;;;;;;0.30;0.30;;;;;;;15.48;73.82;100143.56;5014254;28;20844;-73
2022/12/31 03:07:04;;;;;;;0.47;0.47;;;;;;;15.46;73.47;100141.13;5014097;28;20439;-74
2022/12/31 03:09:29;;;;;;;2.97;0.50;;;;;;;15.39;73.78;100140.63;5014913;28;20396;-74
2022/12/31 03:14:39;;;;;;;0.52;0.52;;;;;;;15.40;73.68;100166.81;5014816;28;20392;-74
2022/12/31 03:17:04;;;;;;;1.30;0.20;;;;;;;15.42;73.78;100164.63;5014626;28;20393;-74
2022/12/31 03:22:29;;;;;;;1.42;0.40;;;;;;;15.49;73.67;100177.97;5014761;28;20416;-74
2022/12/31 03:27:39;;;;;;;0.40;0.20;;;;;;;15.53;73.69;100154.47;5013219;28;20776;-74
2022/12/31 03:30:05;;;;;;;0.30;0.30;;;;;;;15.48;73.91;100179.06;5013812;28;20401;-74
2022/12/31 03:32:30;;;;;;;0.50;0.30;;;;;;;15.50;74.08;100177.72;5012604;28;20466;-74
2022/12/31 03:34:56;;;;;;;0.50;0.33;;;;;;;15.59;73.84;100180.66;5012647;28;20899;-73
2022/12/31 03:37:21;;;;;;;0.43;0.30;;;;;;;15.68;73.52;100168.00;5013029;28;20401;-73
2022/12/31 03:39:46;;;;;;;1.30;0.40;;;;;;;15.63;73.78;100167.22;5014177;28;20863;-74
2022/12/31 03:42:11;;;;;;;0.37;0.37;;;;;;;15.60;74.15;100163.16;5014123;28;20428;-74
2022/12/31 03:44:37;;;;;;;1.50;0.40;;;;;;;15.60;74.13;100170.53;5010333;28;20880;-74
2022/12/31 03:47:02;;;;;;;0.50;0.30;;;;;;;15.63;73.98;100178.16;5012381;28;20393;-74
2022/12/31 03:49:27;;;;;;;1.80;0.20;;;;;;;15.63;74.01;100176.25;5011850;28;20415;-74
2022/12/31 03:51:53;;;;;;;0.30;0.30;;;;;;;15.64;73.98;100177.88;5011465;28;20409;-74
2022/12/31 03:54:18;;;;;;;0.30;0.30;;;;;;;15.63;73.91;100162.59;5014202;28;20471;-74
2022/12/31 03:56:43;;;;;;;1.30;0.30;;;;;;;15.63;73.85;100167.22;5012833;28;20389;-74
2022/12/31 03:59:09;;;;;;;0.43;0.30;;;;;;;15.60;74.07;100176.00;5013835;28;20408;-74
2022/12/31 04:01:34;;;;;;;0.85;0.35;;;;;;;15.56;74.47;100179.31;5013885;28;20431;-74
2022/12/31 04:03:59;;;;;;;0.90;0.40;;;;;;;15.57;74.66;100171.94;5010533;28;20772;-73
2022/12/31 04:06:24;;;;;;;0.60;0.20;;;;;;;15.55;74.80;100183.13;5012261;28;20504;-73
2022/12/31 04:08:49;;;;;;;0.33;0.20;;;;;;;15.55;75.07;100177.66;5013798;28;20400;-74
2022/12/31 04:11:15;;;;;;;0.23;0.23;;;;;;;15.56;75.18;100168.38;5013696;28;20385;-74
2022/12/31 04:13:40;;;;;;;0.40;0.30;;;;;;;15.56;75.36;100159.38;5013508;28;20452;-73
2022/12/31 04:16:05;;;;;;;0.30;0.30;;;;;;;15.61;75.01;100164.78;5012994;28;20412;-74
2022/12/31 04:18:30;;;;;;;0.80;0.30;;;;;;;15.63;74.85;100156.31;5013626;28;20803;-74
2022/12/31 04:21:03;;;;;;;0.60;0.20;;;;;;;15.64;74.56;100164.22;5013401;28;20401;-74
2022/12/31 04:23:29;;;;;;;0.50;0.30;;;;;;;15.70;74.35;100146.69;5013331;28;20874;-74
2022/12/31 04:25:54;;;;;;;0.93;0.30;;;;;;;15.68;74.28;100159.81;5012917;28;20469;-74
2022/12/31 04:28:20;;;;;;;1.30;0.20;;;;;;;15.64;74.81;100163.41;5011848;28;20892;-74
2022/12/31 04:30:45;;;;;;;0.43;0.43;;;;;;;15.71;74.51;100167.44;5012149;28;20480;-74
2022/12/31 04:33:10;;;;;;;1.00;0.30;;;;;;;15.70;74.40;100168.56;5013194;28;20389;-74
2022/12/31 04:35:35;;;;;;;0.60;0.50;;;;;;;15.73;74.37;100169.88;5013114;28;20748;-73
2022/12/31 04:38:01;;;;;;;1.70;0.40;;;;;;;15.83;74.00;100175.28;5011227;28;20412;-74
2022/12/31 04:40:26;;;;;;;0.30;0.30;;;;;;;15.82;73.82;100173.63;5013095;28;20389;-73
2022/12/31 04:42:51;;;;;;;0.30;0.30;;;;;;;15.80;73.64;100181.31;5013063;28;20413;-73
2022/12/31 04:45:16;;;;;;;0.60;0.40;;;;;;;15.70;74.13;100189.59;5013049;28;20403;-73
2022/12/31 04:47:42;;;;;;;2.60;0.37;;;;;;;15.64;74.56;100190.72;5012356;28;20749;-74
2022/12/31 04:50:07;;;;;;;0.60;0.33;;;;;;;15.63;74.67;100198.09;5012733;28;20487;-73
2022/12/31 04:52:33;;;;;;;0.43;0.43;;;;;;;15.61;74.79;100202.22;5012891;28;20401;-75
2022/12/31 04:54:58;;;;;;;0.30;0.30;;;;;;;15.61;74.82;100211.22;5012847;28;20465;-74
2022/12/31 04:57:23;;;;;;;1.60;0.50;;;;;;;15.66;74.65;100210.38;5010955;28;20416;-73
2022/12/31 04:59:48;;;;;;;0.40;0.40;;;;;;;15.72;74.39;100201.03;5011487;28;20977;-74
2022/12/31 05:02:14;;;;;;;1.20;0.33;;;;;;;15.75;74.36;100209.47;5012762;28;20420;-74
2022/12/31 05:04:39;;;;;;;0.70;0.40;;;;;;;15.71;74.21;100199.41;4992544;28;20988;-74
2022/12/31 05:07:04;;;;;;;0.40;0.40;;;;;;;15.70;74.39;100203.25;5012492;28;20491;-74
2022/12/31 05:09:30;;;;;;;0.30;0.27;;;;;;;15.72;74.85;100212.78;5012639;28;20404;-74
2022/12/31 05:11:55;;;;;;;1.80;0.50;;;;;;;15.75;74.68;100220.41;5012784;28;20393;-74
2022/12/31 05:14:20;;;;;;;0.30;0.30;;;;;;;15.72;74.62;100226.44;5011770;28;20756;-74
2022/12/31 05:16:46;;;;;;;0.20;0.20;;;;;;;15.74;74.64;100223.44;5012426;28;20400;-74
2022/12/31 05:19:11;;;;;;;1.40;0.53;;;;;;;15.78;74.69;100221.75;5012412;28;20404;-74
2022/12/31 05:21:36;;;;;;;0.80;0.80;;;;;;;15.80;74.29;100217.66;5012354;28;20412;-73
2022/12/31 05:24:02;;;;;;;0.83;0.83;;;;;;;15.79;74.23;100218.75;5011532;28;20474;-73
2022/12/31 05:26:27;;;;;;;0.20;0.20;;;;;;;15.78;74.27;100221.75;5010703;28;20397;-74
2022/12/31 05:28:54;;;;;;;0.20;0.20;;;;;;;15.77;74.44;100225.59;5012434;28;20907;-74
2022/12/31 05:31:19;;;;;;;1.10;0.30;;;;;;;15.80;74.19;100238.69;5012208;28;20911;-74
2022/12/31 05:33:44;;;;;;;0.37;0.37;;;;;;;15.75;74.13;100231.34;5011604;28;20404;-74
2022/12/31 05:36:09;;;;;;;2.10;0.30;;;;;;;15.71;74.54;100230.25;5009534;28;20415;-73
2022/12/31 05:38:36;;;;;;;0.40;0.40;;;;;;;15.74;74.04;100239.84;5012200;28;20471;-74
2022/12/31 05:41:04;;;;;;;1.55;0.40;;;;;;;15.76;74.28;100237.63;5011864;28;20483;-74
2022/12/31 05:43:31;;;;;;;0.40;0.40;;;;;;;15.75;74.21;100249.63;5012157;28;20769;-74
2022/12/31 05:45:59;;;;;;;0.50;0.30;;;;;;;15.73;74.51;100244.47;5010812;28;20469;-73
2022/12/31 05:48:24;;;;;;;0.22;0.22;;;;;;;15.78;74.17;100260.81;4997441;28;20867;-74
2022/12/31 05:50:50;;;;;;;0.53;0.30;;;;;;;15.74;74.39;100259.75;5012012;28;20397;-74
2022/12/31 05:53:15;;;;;;;0.40;0.40;;;;;;;15.71;74.46;100256.78;5012067;28;20883;-73
2022/12/31 05:55:40;;;;;;;0.70;0.20;;;;;;;15.69;74.21;100250.78;5010512;28;20413;-73
2022/12/31 05:58:05;;;;;;;0.90;0.30;;;;;;;15.65;74.27;100261.44;5011844;28;20408;-73
2022/12/31 06:00:31;;;;;;;1.10;0.40;;;;;;;15.64;74.36;100264.47;5010857;28;20396;-75
2022/12/31 06:02:56;;;;;;;0.40;0.40;;;;;;;15.60;74.35;100266.13;5011902;28;20416;-74
2022/12/31 06:05:21;;;;;;;0.40;0.40;;;;;;;15.56;74.53;100258.50;5011114;28;20412;-74
2022/12/31 06:07:46;;;;;;;0.30;0.30;;;;;;;15.57;74.49;100259.34;5011987;28;20403;-74
2022/12/31 06:10:12;;;;;;;0.40;0.40;;;;;;;15.55;74.45;100245.94;5011893;28;20725;-74
2022/12/31 06:12:37;;;;;;;1.70;0.60;;;;;;;15.53;74.41;100252.78;5011904;28;20407;-74
2022/12/31 06:15:03;;;;;;;0.30;0.30;;;;;;;15.48;74.42;100253.63;5010485;28;20791;-74
2022/12/31 06:17:29;;;;;;;0.40;0.40;;;;;;;15.45;74.41;100259.63;5009982;28;20431;-74
2022/12/31 06:19:54;;;;;;;0.70;0.40;;;;;;;15.46;74.31;100250.34;5014032;28;20408;-74
2022/12/31 06:22:19;;;;;;;0.80;0.30;;;;;;;15.47;74.18;100254.72;5007868;28;20438;-74
2022/12/31 06:24:44;;;;;;;0.40;0.30;;;;;;;15.48;73.96;100261.00;5010751;28;20404;-74
2022/12/31 06:27:10;;;;;;;0.77;0.40;;;;;;;15.48;73.91;100250.91;5011573;28;20389;-74
2022/12/31 06:29:35;;;;;;;0.60;0.40;;;;;;;15.43;74.03;100261.84;5009992;28;20408;-74
2022/12/31 06:32:00;;;;;;;0.50;0.50;;;;;;;15.43;73.84;100259.09;5011016;28;20937;-74
2022/12/31 06:34:26;;;;;;;0.70;0.30;;;;;;;15.42;74.13;100259.38;5011653;28;20392;-74
2022/12/31 06:36:51;;;;;;;0.40;0.40;;;;;;;15.44;73.66;100268.13;5011515;28;20763;-74
2022/12/31 06:39:17;;;;;;;0.37;0.37;;;;;;;15.45;73.63;100281.47;5011244;28;20405;-73
2022/12/31 06:41:42;;;;;;;0.50;0.50;;;;;;;15.48;73.40;100266.47;5009786;28;20397;-74
2022/12/31 06:44:07;;;;;;;0.53;0.53;;;;;;;15.49;73.34;100273.56;5011682;28;20777;-74
2022/12/31 06:46:32;;;;;;;0.32;0.32;;;;;;;15.50;73.28;100283.41;5011579;28;20439;-74
2022/12/31 06:48:57;;;;;;;0.47;0.40;;;;;;;15.49;73.26;100285.31;5011230;28;20397;-74
2022/12/31 06:51:23;;;;;;;0.40;0.40;;;;;;;15.49;73.36;100284.50;5011660;28;20404;-74
2022/12/31 06:53:49;;;;;;;0.40;0.40;;;;;;;15.50;73.30;100276.03;5011627;28;20397;-74
2022/12/31 06:56:18;;;;;;;0.60;0.40;;;;;;;15.52;73.08;100286.66;5010894;28;20975;-74
2022/12/31 06:58:44;;;;;;;0.22;0.22;;;;;;;15.52;72.97;100286.66;5015557;28;20403;-73
2022/12/31 07:01:47;;;;;;;0.73;0.73;;;;;;;15.52;73.01;100282.03;5010220;28;20389;-74
2022/12/31 07:04:46;;;;;;;0.63;0.63;;;;;;;15.48;73.02;100280.13;5017754;28;20651;-74
2022/12/31 07:07:19;;;;;;;1.27;1.10;;;;;;;15.44;73.16;100290.75;5011857;28;20435;-74
2022/12/31 07:09:59;;;;;;;0.63;0.63;;;;;;;15.47;72.99;100286.66;5013975;28;20946;-74
2022/12/31 07:12:45;;;;;;;0.70;0.47;;;;;;;15.49;72.73;100288.03;5012989;28;20413;-74
2022/12/31 07:15:18;;;;;;;0.40;0.30;;;;;;;15.50;72.97;100295.16;5016092;28;20419;-74
2022/12/31 07:18:14;;;;;;;0.38;0.32;;;;;;;15.61;72.42;100279.50;5019871;28;20407;-74
2022/12/31 07:20:39;;;;;;;0.50;0.50;;;;;;;15.55;72.71;100283.34;5014582;28;20397;-74
2022/12/31 07:23:07;;;;;;;2.70;0.50;;;;;;;15.55;72.49;100291.56;5023091;28;20434;-74
2022/12/31 07:25:35;;;;;;;0.80;0.30;;;;;;;15.53;72.82;100308.25;5021130;28;20479;-74
2022/12/31 07:28:36;;;;;;;0.30;0.30;;;;;;;15.60;72.26;100307.94;5016950;28;20404;-74
2022/12/31 07:31:23;;;;;;;0.55;0.52;;;;;;;15.59;72.30;100317.22;5016813;28;20753;-74
2022/12/31 07:34:15;;;;;;;0.60;0.60;;;;;;;15.62;72.31;100315.84;5011429;28;20440;-74
2022/12/31 07:37:16;;;;;;;1.02;0.55;;;;;;;15.65;72.28;100318.00;5004102;28;20480;-74
2022/12/31 07:40:01;;;;;;;4.10;0.50;;;;;;;15.66;71.94;100333.31;5010791;28;20385;-74
2022/12/31 07:42:31;;;;;;;1.60;0.30;;;;;;;15.67;72.06;100337.69;5014483;28;20918;-74
2022/12/31 07:45:08;;;;;;;0.80;0.40;;;;;;;15.71;71.84;100323.16;5013049;28;20971;-74
2022/12/31 07:47:34;;;;;;;1.67;0.80;;;;;;;15.76;71.62;100328.59;5008765;28;20436;-74
2022/12/31 07:49:59;;;;;;;2.47;1.40;;;;;;;15.76;71.71;100342.25;5012700;28;20401;-74
2022/12/31 07:52:25;;;;;;;1.05;0.90;;;;;;;15.79;71.56;100343.59;5013289;28;20410;-74
2022/12/31 07:54:50;;;;;;;1.80;0.70;;;;;;;15.82;71.45;100337.56;5019697;28;20396;-74
2022/12/31 07:57:17;;;;;;;1.40;0.80;;;;;;;15.92;71.01;100332.06;5015449;28;20909;-75
2022/12/31 08:00:04;;;;;;;0.60;0.32;;;;;;;15.96;70.54;100324.94;5016431;28;20436;-75
2022/12/31 08:03:08;;;;;;;0.40;0.40;;;;;;;15.98;70.31;100333.66;5012745;28;20405;-74
2022/12/31 08:05:51;;;;;;;1.02;0.30;;;;;;;15.98;70.08;100341.84;5011699;28;20412;-75
2022/12/31 08:08:40;;;;;;;0.57;0.57;;;;;;;16.01;69.96;100352.22;5012536;28;20420;-74
2022/12/31 08:11:11;;;;;;;1.00;0.32;;;;;;;15.99;70.12;100348.97;5014880;28;20397;-74
2022/12/31 08:13:39;;;;;;;1.25;0.40;;;;;;;15.98;70.10;100363.72;5010609;28;20392;-74
2022/12/31 08:16:10;;;;;;;0.70;0.20;;;;;;;16.02;69.90;100357.41;5011277;28;20436;-74
2022/12/31 08:18:36;;;;;;;1.83;0.28;;;;;;;16.11;69.27;100357.63;5008743;28;20414;-74
2022/12/31 08:21:14;;;;;;;0.43;0.43;;;;;;;16.15;69.01;100360.59;5013430;28;20397;-74
2022/12/31 08:24:08;;;;;;;0.77;0.30;;;;;;;16.17;68.90;100366.63;5011755;28;20903;-74
2022/12/31 08:26:55;;;;;;;0.95;0.40;;;;;;;16.25;68.68;100366.00;5013140;28;20453;-74
2022/12/31 08:29:34;;;;;;;0.60;0.30;;;;;;;16.32;68.33;100375.53;5013281;28;20401;-74
2022/12/31 08:32:11;;;;;;;0.30;0.20;;;;;;;16.34;68.23;100369.75;5012611;28;20417;-73
2022/12/31 08:34:53;;;;;;;0.90;0.40;;;;;;;16.45;67.50;100366.66;5012585;28;20465;-73
2022/12/31 08:37:42;;;;;;;0.30;0.30;;;;;;;16.45;67.67;100374.88;5013142;28;20396;-73
2022/12/31 08:40:44;;;;;;;0.60;0.40;;;;;;;16.55;67.30;100371.28;5012534;28;20418;-74
2022/12/31 08:43:40;;;;;;;1.40;0.35;;;;;;;16.63;67.10;100376.13;5008720;28;20417;-74
2022/12/31 08:46:17;;;;;;;1.50;0.45;;;;;;;16.73;66.78;100373.28;5002798;28;20417;-73
2022/12/31 08:48:44;;;;;;;1.35;0.60;;;;;;;16.81;66.50;100363.66;5010920;28;20420;-74
2022/12/31 08:51:18;;;;;;;0.77;0.55;;;;;;;16.89;66.21;100372.03;5010426;28;20483;-75
2022/12/31 08:53:43;;;;;;;1.40;0.50;;;;;;;16.95;65.84;100370.09;5010604;28;20413;-74
2022/12/31 08:56:20;;;;;;;2.20;0.50;;;;;;;17.00;65.51;100368.09;5018670;28;20417;-74
2022/12/31 08:59:06;;;;;;;0.60;0.40;;;;;;;17.02;65.25;100384.25;5011885;28;20412;-73
2022/12/31 09:02:06;;;;;;;1.30;0.40;;;;;;;16.95;65.45;100383.78;5002746;28;20412;-74
2022/12/31 09:05:08;;;;;;;0.30;0.30;;;;;;;17.10;64.85;100389.91;4990868;28;20416;-74
2022/12/31 09:07:39;;;;;;;1.20;0.40;;;;;;;17.06;65.03;100401.72;5009367;28;20796;-73
2022/12/31 09:10:28;;;;;;;1.20;0.40;;;;;;;17.19;64.41;100381.06;5010950;28;20419;-74
2022/12/31 09:13:23;;;;;;;1.40;0.47;;;;;;;17.17;64.41;100381.34;5010460;28;20408;-74
2022/12/31 09:16:15;;;;;;;1.60;0.68;;;;;;;17.22;64.24;100391.44;5010018;28;20409;-74
2022/12/31 09:18:41;;;;;;;2.00;0.35;;;;;;;17.14;64.48;100392.88;5009630;28;20416;-74
2022/12/31 09:21:12;;;;;;;1.60;0.27;;;;;;;17.12;64.36;100393.16;5011751;28;20513;-73
2022/12/31 09:23:38;;;;;;;0.47;0.40;;;;;;;17.16;64.33;100398.09;5012623;28;20424;-73
2022/12/31 09:26:19;;;;;;;1.87;0.40;;;;;;;17.26;64.13;100393.28;5011942;28;20392;-74
2022/12/31 09:28:57;;;;;;;0.40;0.40;;;;;;;17.41;63.75;100389.59;5003292;28;20916;-73
2022/12/31 09:31:39;;;;;;;0.73;0.70;;;;;;;17.48;63.63;100387.31;5008715;28;20429;-73
2022/12/31 09:34:10;;;;;;;4.18;0.68;;;;;;;17.58;63.28;100409.16;5010216;28;20413;-74
2022/12/31 09:36:41;;;;;;;1.30;0.38;;;;;;;17.59;63.09;100399.81;5007874;28;20408;-74
2022/12/31 09:39:19;;;;;;;0.40;0.20;;;;;;;17.55;63.09;100406.97;5007976;28;20880;-73
2022/12/31 09:42:00;;;;;;;0.60;0.50;;;;;;;17.55;63.01;100405.03;5008152;28;20416;-73
2022/12/31 09:45:02;;;;;;;0.40;0.40;;;;;;;17.44;63.34;100402.69;5005830;28;20412;-74
2022/12/31 09:48:02;;;;;;;1.00;0.30;;;;;;;17.45;63.39;100418.03;5005676;28;20415;-74
2022/12/31 09:50:47;;;;;;;0.77;0.22;;;;;;;17.60;63.15;100395.97;5009513;28;20392;-74
2022/12/31 09:53:25;;;;;;;0.30;0.30;;;;;;;17.99;62.18;100395.72;5011983;28;20388;-74
2022/12/31 09:56:09;;;;;;;0.30;0.30;;;;;;;18.24;61.22;100402.78;5011832;28;20381;-74
2022/12/31 09:58:44;;;;;;;0.50;0.30;;;;;;;18.34;60.98;100408.91;5010342;28;20437;-73
2022/12/31 10:01:22;;;;;;;0.30;0.30;;;;;;;18.50;60.79;100404.88;5009891;28;20443;-74
2022/12/31 10:04:12;;;;;;;0.40;0.40;;;;;;;18.85;59.62;100417.19;5010437;28;20903;-73
2022/12/31 10:06:58;;;;;;;2.20;0.30;;;;;;;19.02;59.04;100419.38;5011984;28;20396;-74
2022/12/31 10:09:27;;;;;;;1.00;0.30;;;;;;;18.99;58.71;100398.00;5010006;28;20834;-74
2022/12/31 10:12:04;;;;;;;0.30;0.30;;;;;;;18.87;58.94;100406.72;5011635;28;20479;-74
2022/12/31 10:15:15;;;;;;;0.40;0.40;;;;;;;18.63;59.16;100397.81;5009521;28;20409;-74
2022/12/31 10:17:53;;;;;;;1.30;0.50;;;;;;;18.54;59.49;100385.91;4992915;28;20425;-73
2022/12/31 10:20:44;;;;;;;1.65;0.30;;;;;;;18.44;59.71;100395.03;5009658;28;20892;-73
2022/12/31 10:23:13;;;;;;;0.38;0.38;;;;;;;18.51;59.42;100384.53;5006489;28;20428;-74
2022/12/31 10:26:11;;;;;;;3.35;0.60;;;;;;;18.63;58.98;100387.66;5010555;28;20492;-74
2022/12/31 10:28:53;;;;;;;0.22;0.22;;;;;;;18.93;58.11;100378.06;5010746;28;20919;-73
2022/12/31 10:31:36;;;;;;;0.70;0.30;;;;;;;19.03;57.36;100380.59;5008757;28;20534;-73
2022/12/31 10:34:13;;;;;;;2.25;0.35;;;;;;;18.77;57.53;100379.44;5012480;28;20514;-73
2022/12/31 10:36:57;;;;;;;1.20;0.50;;;;;;;18.73;57.84;100388.59;5006214;28;20417;-73
2022/12/31 10:39:53;;;;;;;0.40;0.40;;;;;;;18.62;58.26;100391.50;5006211;28;20459;-74
2022/12/31 10:42:37;;;;;;;0.30;0.30;;;;;;;18.52;58.70;100390.84;5006659;28;20460;-73
2022/12/31 10:45:13;;;;;;;1.60;0.40;;;;;;;18.40;59.12;100393.22;5004430;28;20455;-76
2022/12/31 10:48:02;;;;;;;0.20;0.20;;;;;;;18.36;59.19;100379.28;5004342;28;20450;-75
2022/12/31 10:50:46;;;;;;;0.45;0.38;;;;;;;18.43;58.88;100387.13;5004866;28;20412;-73
2022/12/31 10:53:37;;;;;;;0.60;0.30;;;;;;;18.55;58.47;100391.06;5003264;28;20837;-78
2022/12/31 10:56:21;;;;;;;1.85;0.30;;;;;;;18.52;58.43;100377.13;5003402;28;20467;-73
2022/12/31 10:59:04;;;;;;;0.40;0.38;;;;;;;18.45;58.46;100382.97;5004239;28;21043;-74
2022/12/31 11:01:36;;;;;;;0.22;0.22;;;;;;;18.49;58.45;100384.00;5011087;28;20501;-73
2022/12/31 11:04:08;;;;;;;3.20;0.32;;;;;;;18.51;58.24;100367.25;5009050;28;20986;-74
2022/12/31 11:06:56;;;;;;;0.75;0.30;;;;;;;18.58;58.02;100379.47;5004920;28;20419;-74
2022/12/31 11:09:40;;;;;;;0.43;0.40;;;;;;;18.69;57.57;100373.81;5002634;28;20408;-74
2022/12/31 11:12:35;;;;;;;0.28;0.20;;;;;;;18.62;57.72;100380.53;5005472;28;20416;-74
2022/12/31 11:15:17;;;;;;;1.38;0.40;;;;;;;18.61;58.02;100380.81;5026367;28;20457;-74
2022/12/31 11:17:54;;;;;;;0.40;0.40;;;;;;;18.70;57.75;100380.97;5020173;28;20541;-73
2022/12/31 11:20:41;;;;;;;1.50;0.38;;;;;;;18.79;57.09;100374.47;5004949;28;20418;-73
2022/12/31 11:23:29;;;;;;;0.80;0.30;;;;;;;18.73;57.47;100378.44;5007832;28;20419;-73
2022/12/31 11:26:32;;;;;;;4.20;0.40;;;;;;;18.63;57.85;100381.34;5003732;28;21022;-73
2022/12/31 11:29:13;;;;;;;0.60;0.27;;;;;;;18.71;57.38;100374.34;5004376;28;20431;-73
2022/12/31 11:32:01;;;;;;;1.40;0.38;;;;;;;18.76;56.95;100375.09;5003766;28;20461;-73
2022/12/31 11:34:45;;;;;;;1.60;0.32;;;;;;;18.70;57.04;100370.78;5006012;28;20453;-73
2022/12/31 11:37:28;;;;;;;0.88;0.38;;;;;;;18.55;57.72;100368.28;5005693;28;20420;-73
2022/12/31 11:40:42;;;;;;;0.60;0.40;;;;;;;18.46;58.07;100361.84;5006417;28;20895;-74
2022/12/31 11:43:34;;;;;;;0.30;0.30;;;;;;;18.41;58.19;100357.22;5006007;28;21362;-73
2022/12/31 11:46:25;;;;;;;1.58;0.43;;;;;;;18.51;57.43;100348.88;5003674;28;20417;-73
2022/12/31 11:49:28;;;;;;;0.30;0.30;;;;;;;18.61;57.00;100347.88;5005389;28;20420;-74
2022/12/31 11:52:19;;;;;;;1.70;0.60;;;;;;;18.57;57.28;100349.63;5007699;28;20405;-74
2022/12/31 11:54:59;;;;;;;0.28;0.28;;;;;;;18.55;57.54;100351.81;5006300;28;20891;-74
2022/12/31 11:57:32;;;;;;;0.40;0.30;;;;;;;18.54;57.45;100347.47;5010096;28;20899;-73
2022/12/31 12:00:22;;;;;;;1.17;0.28;;;;;;;18.67;57.00;100345.88;5011717;28;20413;-73
2022/12/31 12:02:49;;;;;;;1.00;0.50;;;;;;;18.67;56.93;100336.50;5004886;28;22359;-74
2022/12/31 12:05:19;;;;;;;0.30;0.30;;;;;;;18.90;56.31;100336.69;5016055;28;20424;-74
2022/12/31 12:07:44;;;;;;;0.60;0.40;;;;;;;18.94;55.94;100330.25;5010713;28;20424;-74